Time;durP1;ratioP1;P1;durP2;ratioP2;P2;SDS_P1;SDS_P2;PMS_P1;PMS_P2;Temp;Humidity;BMP_temperature;BMP_pressure;BME280_temperature;BME280_humidity;BME280_pressure;Samples;Min_cycle;Max_cycle;Signal;HPM_P1;HPM_P2
2023/04/10 00:01:05;;;;;;;169.90;76.20;;;;;;;-128.00;-1.00;-1.00;132574;1275;1002757;-73
2023/04/10 00:04:06;;;;;;;79.40;42.80;;;;;;;-128.00;-1.00;-1.00;132590;1275;1002628;-73
2023/04/10 00:07:07;;;;;;;69.30;37.00;;;;;;;-128.00;-1.00;-1.00;132472;1275;1003035;-72
2023/04/10 00:10:08;;;;;;;70.40;37.50;;;;;;;-128.00;-1.00;-1.00;132514;1275;1002753;-71
2023/04/10 00:13:09;;;;;;;70.20;37.00;;;;;;;-128.00;-1.00;-1.00;132625;1275;1002511;-72
2023/04/10 00:16:10;;;;;;;79.80;39.10;;;;;;;-128.00;-1.00;-1.00;132577;1275;1002630;-73
2023/04/10 00:19:11;;;;;;;88.90;45.70;;;;;;;-128.00;-1.00;-1.00;132570;1254;1002624;-72
2023/04/10 00:22:12;;;;;;;98.70;49.80;;;;;;;-128.00;-1.00;-1.00;132547;1275;1002685;-72
2023/04/10 00:25:13;;;;;;;78.20;44.30;;;;;;;-128.00;-1.00;-1.00;132543;1275;1003182;-72
2023/04/10 00:28:16;;;;;;;66.60;35.10;;;;;;;-128.00;-1.00;-1.00;132601;1275;1003018;-72
2023/04/10 00:31:17;;;;;;;69.30;37.10;;;;;;;-128.00;-1.00;-1.00;132518;1275;1002136;-75
2023/04/10 00:34:18;;;;;;;66.50;36.00;;;;;;;-128.00;-1.00;-1.00;132600;1275;1002685;-72
2023/04/10 00:37:18;;;;;;;75.00;40.80;;;;;;;-128.00;-1.00;-1.00;132604;1275;1004173;-72
2023/04/10 00:40:20;;;;;;;76.00;42.50;;;;;;;-128.00;-1.00;-1.00;132572;1275;1002698;-72
2023/04/10 00:43:21;;;;;;;78.60;42.70;;;;;;;-128.00;-1.00;-1.00;132545;1275;1002571;-75
2023/04/10 00:46:22;;;;;;;76.60;42.80;;;;;;;-128.00;-1.00;-1.00;132641;1275;1002926;-72
2023/04/10 00:49:23;;;;;;;75.20;42.10;;;;;;;-128.00;-1.00;-1.00;132519;1275;1002644;-70
2023/04/10 00:52:24;;;;;;;71.90;38.90;;;;;;;-128.00;-1.00;-1.00;132536;1275;1002999;-68
2023/04/10 00:55:26;;;;;;;73.40;37.80;;;;;;;-128.00;-1.00;-1.00;132614;1275;1002611;-69
2023/04/10 00:58:26;;;;;;;73.90;39.30;;;;;;;-128.00;-1.00;-1.00;132576;1275;1003165;-73
2023/04/10 01:01:27;;;;;;;71.40;38.40;;;;;;;-128.00;-1.00;-1.00;132565;1275;1002651;-71
2023/04/10 01:04:29;;;;;;;73.80;38.10;;;;;;;-128.00;-1.00;-1.00;132565;1275;1002534;-73
2023/04/10 01:07:30;;;;;;;71.90;39.20;;;;;;;-128.00;-1.00;-1.00;132561;1275;1002717;-73
2023/04/10 01:10:31;;;;;;;75.00;40.20;;;;;;;-128.00;-1.00;-1.00;132512;1275;1002805;-69
2023/04/10 01:13:32;;;;;;;74.10;40.00;;;;;;;-128.00;-1.00;-1.00;132611;1275;1002934;-72
2023/04/10 01:16:33;;;;;;;74.50;38.80;;;;;;;-128.00;-1.00;-1.00;132584;1275;1002434;-71
2023/04/10 01:19:34;;;;;;;72.00;38.70;;;;;;;-128.00;-1.00;-1.00;132460;1275;1002742;-72
2023/04/10 01:22:35;;;;;;;71.90;38.40;;;;;;;-128.00;-1.00;-1.00;132481;1275;1003635;-71
2023/04/10 01:25:37;;;;;;;74.30;39.20;;;;;;;-128.00;-1.00;-1.00;132439;1275;1002586;-73
2023/04/10 01:28:38;;;;;;;72.80;38.50;;;;;;;-128.00;-1.00;-1.00;132475;1275;1002790;-72
2023/04/10 01:31:39;;;;;;;75.30;41.20;;;;;;;-128.00;-1.00;-1.00;132563;1275;1002844;-73
2023/04/10 01:34:40;;;;;;;75.20;39.20;;;;;;;-128.00;-1.00;-1.00;132570;1275;1002887;-72
2023/04/10 01:37:42;;;;;;;74.00;39.00;;;;;;;-128.00;-1.00;-1.00;132587;1275;1002218;-72
2023/04/10 01:40:48;;;;;;;75.20;39.70;;;;;;;-128.00;-1.00;-1.00;132571;1275;1004308;-71
2023/04/10 01:43:50;;;;;;;81.80;43.00;;;;;;;-128.00;-1.00;-1.00;132608;1275;1002781;-72
2023/04/10 01:46:51;;;;;;;78.50;41.70;;;;;;;-128.00;-1.00;-1.00;132571;1275;1002588;-71
2023/04/10 01:49:52;;;;;;;86.90;44.70;;;;;;;-128.00;-1.00;-1.00;132541;1275;1002766;-72
2023/04/10 01:52:53;;;;;;;88.10;45.10;;;;;;;-128.00;-1.00;-1.00;132587;1275;1002352;-72
2023/04/10 01:55:54;;;;;;;85.40;43.40;;;;;;;-128.00;-1.00;-1.00;132617;1275;1002920;-72
2023/04/10 01:58:55;;;;;;;90.40;45.10;;;;;;;-128.00;-1.00;-1.00;132587;1275;1002666;-71
2023/04/10 02:01:56;;;;;;;91.20;45.20;;;;;;;-128.00;-1.00;-1.00;132549;1275;1002759;-73
2023/04/10 02:04:57;;;;;;;81.70;43.10;;;;;;;-128.00;-1.00;-1.00;132525;1275;1002558;-72
2023/04/10 02:07:58;;;;;;;82.20;44.00;;;;;;;-128.00;-1.00;-1.00;132355;1275;1002725;-71
2023/04/10 02:10:59;;;;;;;87.80;44.70;;;;;;;-128.00;-1.00;-1.00;132592;1275;1002596;-72
2023/04/10 02:14:01;;;;;;;82.10;43.00;;;;;;;-128.00;-1.00;-1.00;132570;1275;1002653;-72
2023/04/10 02:17:02;;;;;;;87.40;44.30;;;;;;;-128.00;-1.00;-1.00;132614;1275;1002835;-71
2023/04/10 02:20:03;;;;;;;95.80;48.00;;;;;;;-128.00;-1.00;-1.00;132607;1275;1002707;-71
2023/04/10 02:23:04;;;;;;;99.70;45.20;;;;;;;-128.00;-1.00;-1.00;132592;1275;1002667;-71
2023/04/10 02:26:05;;;;;;;91.90;46.40;;;;;;;-128.00;-1.00;-1.00;132599;1275;1002745;-72
2023/04/10 02:29:06;;;;;;;89.10;44.50;;;;;;;-128.00;-1.00;-1.00;132533;1275;1002493;-72
2023/04/10 02:32:07;;;;;;;89.30;43.10;;;;;;;-128.00;-1.00;-1.00;132608;1275;1003756;-70
2023/04/10 02:35:08;;;;;;;82.40;43.00;;;;;;;-128.00;-1.00;-1.00;132579;1275;1002426;-69
2023/04/10 02:38:09;;;;;;;78.00;41.40;;;;;;;-128.00;-1.00;-1.00;132599;1275;1002721;-71
2023/04/10 02:41:10;;;;;;;81.90;42.50;;;;;;;-128.00;-1.00;-1.00;132635;1275;1002522;-72
2023/04/10 02:44:11;;;;;;;74.20;40.00;;;;;;;-128.00;-1.00;-1.00;132617;1275;1002851;-71
2023/04/10 02:47:11;;;;;;;78.70;39.60;;;;;;;-128.00;-1.00;-1.00;132558;1275;1002747;-72
2023/04/10 02:50:12;;;;;;;71.70;39.30;;;;;;;-128.00;-1.00;-1.00;132507;1275;1002516;-71
2023/04/10 02:53:14;;;;;;;76.20;38.60;;;;;;;-128.00;-1.00;-1.00;132588;1275;1002463;-72
2023/04/10 02:56:15;;;;;;;76.00;39.60;;;;;;;-128.00;-1.00;-1.00;132641;1275;1004332;-71
2023/04/10 02:59:16;;;;;;;83.70;40.40;;;;;;;-128.00;-1.00;-1.00;132632;1275;1003899;-70
2023/04/10 03:02:17;;;;;;;75.90;39.30;;;;;;;-128.00;-1.00;-1.00;132630;1275;1002814;-72
2023/04/10 03:05:18;;;;;;;73.80;39.00;;;;;;;-128.00;-1.00;-1.00;132589;1275;1003111;-72
2023/04/10 03:08:19;;;;;;;90.30;41.70;;;;;;;-128.00;-1.00;-1.00;132511;1275;1002698;-70
2023/04/10 03:11:21;;;;;;;83.70;39.50;;;;;;;-128.00;-1.00;-1.00;132618;1275;1002290;-70
2023/04/10 03:14:22;;;;;;;111.50;42.50;;;;;;;-128.00;-1.00;-1.00;132532;1275;1002775;-72
2023/04/10 03:17:23;;;;;;;81.20;41.10;;;;;;;-128.00;-1.00;-1.00;132625;1275;1003101;-73
2023/04/10 03:20:23;;;;;;;72.70;37.90;;;;;;;-128.00;-1.00;-1.00;132619;1275;1002551;-69
2023/04/10 03:23:24;;;;;;;72.10;37.20;;;;;;;-128.00;-1.00;-1.00;132626;1275;1002999;-72
2023/04/10 03:26:26;;;;;;;76.10;38.80;;;;;;;-128.00;-1.00;-1.00;132524;1275;1003278;-70
2023/04/10 03:29:27;;;;;;;73.20;37.60;;;;;;;-128.00;-1.00;-1.00;132603;1275;1002837;-71
2023/04/10 03:32:29;;;;;;;79.50;39.70;;;;;;;-128.00;-1.00;-1.00;132612;1275;1002970;-71
2023/04/10 03:35:31;;;;;;;79.20;38.20;;;;;;;-128.00;-1.00;-1.00;132640;1275;1002167;-72
2023/04/10 03:38:32;;;;;;;74.60;38.60;;;;;;;-128.00;-1.00;-1.00;132587;1275;1002701;-72
2023/04/10 03:41:33;;;;;;;68.20;35.60;;;;;;;-128.00;-1.00;-1.00;132622;1275;1002817;-70
2023/04/10 03:44:34;;;;;;;72.00;38.20;;;;;;;-128.00;-1.00;-1.00;132613;1275;1003459;-72
2023/04/10 03:47:35;;;;;;;73.10;37.40;;;;;;;-128.00;-1.00;-1.00;132541;1275;1003232;-72
2023/04/10 03:50:36;;;;;;;70.20;36.70;;;;;;;-128.00;-1.00;-1.00;132610;1275;1002491;-72
2023/04/10 03:53:37;;;;;;;73.40;37.30;;;;;;;-128.00;-1.00;-1.00;132615;1275;1002920;-72
2023/04/10 03:56:38;;;;;;;69.20;38.10;;;;;;;-128.00;-1.00;-1.00;132608;1275;1002217;-70
2023/04/10 03:59:39;;;;;;;65.90;35.00;;;;;;;-128.00;-1.00;-1.00;132633;1275;1002969;-69
2023/04/10 04:02:40;;;;;;;73.40;37.30;;;;;;;-128.00;-1.00;-1.00;132633;1275;1003197;-72
2023/04/10 04:05:41;;;;;;;71.00;35.20;;;;;;;-128.00;-1.00;-1.00;132599;1275;1002326;-73
2023/04/10 04:08:42;;;;;;;77.60;36.70;;;;;;;-128.00;-1.00;-1.00;132516;1275;1003263;-71
2023/04/10 04:11:43;;;;;;;73.70;38.40;;;;;;;-128.00;-1.00;-1.00;132578;1275;1002622;-71
2023/04/10 04:14:44;;;;;;;70.30;37.80;;;;;;;-128.00;-1.00;-1.00;132600;1275;1002488;-73
2023/04/10 04:17:45;;;;;;;76.50;37.40;;;;;;;-128.00;-1.00;-1.00;132613;1275;1002746;-72
2023/04/10 04:20:46;;;;;;;74.20;38.50;;;;;;;-128.00;-1.00;-1.00;132631;1275;1003547;-73
2023/04/10 04:23:47;;;;;;;68.00;34.90;;;;;;;-128.00;-1.00;-1.00;132607;1275;1002272;-72
2023/04/10 04:26:48;;;;;;;71.40;37.60;;;;;;;-128.00;-1.00;-1.00;132574;1275;1002538;-68
2023/04/10 04:29:49;;;;;;;66.50;35.00;;;;;;;-128.00;-1.00;-1.00;132523;1275;1003174;-72
2023/04/10 04:32:50;;;;;;;73.00;34.70;;;;;;;-128.00;-1.00;-1.00;132636;1275;1002673;-70
2023/04/10 04:35:51;;;;;;;64.10;34.80;;;;;;;-128.00;-1.00;-1.00;132612;1275;1002650;-72
2023/04/10 04:38:52;;;;;;;73.50;36.30;;;;;;;-128.00;-1.00;-1.00;132624;1275;1002744;-69
2023/04/10 04:41:52;;;;;;;62.10;32.90;;;;;;;-128.00;-1.00;-1.00;132596;1275;1002775;-68
2023/04/10 04:44:53;;;;;;;76.90;36.20;;;;;;;-128.00;-1.00;-1.00;132572;1275;1003416;-73
2023/04/10 04:47:54;;;;;;;64.70;31.90;;;;;;;-128.00;-1.00;-1.00;132582;1275;1002700;-69
2023/04/10 04:50:55;;;;;;;64.50;29.70;;;;;;;-128.00;-1.00;-1.00;132592;1275;1003157;-71
2023/04/10 04:53:56;;;;;;;59.60;29.10;;;;;;;-128.00;-1.00;-1.00;132584;1275;1002698;-69
2023/04/10 04:56:57;;;;;;;55.30;28.60;;;;;;;-128.00;-1.00;-1.00;132527;1275;1002529;-70
2023/04/10 04:59:58;;;;;;;57.90;28.10;;;;;;;-128.00;-1.00;-1.00;132522;1275;1003284;-67
2023/04/10 05:02:59;;;;;;;56.10;28.90;;;;;;;-128.00;-1.00;-1.00;132536;1275;1003491;-73
2023/04/10 05:06:00;;;;;;;54.50;27.20;;;;;;;-128.00;-1.00;-1.00;132593;1275;1002682;-73
2023/04/10 05:09:01;;;;;;;55.10;27.00;;;;;;;-128.00;-1.00;-1.00;132563;1275;1003184;-73
2023/04/10 05:12:02;;;;;;;59.80;26.80;;;;;;;-128.00;-1.00;-1.00;132651;1275;1002585;-73
2023/04/10 05:15:03;;;;;;;53.60;27.20;;;;;;;-128.00;-1.00;-1.00;132608;1274;1002326;-72
2023/04/10 05:18:04;;;;;;;58.00;26.90;;;;;;;-128.00;-1.00;-1.00;132620;1275;1002753;-72
2023/04/10 05:21:05;;;;;;;48.80;26.00;;;;;;;-128.00;-1.00;-1.00;132645;1275;1002497;-73
2023/04/10 05:24:06;;;;;;;49.80;26.10;;;;;;;-128.00;-1.00;-1.00;132622;1275;1002726;-73
2023/04/10 05:27:07;;;;;;;57.50;26.40;;;;;;;-128.00;-1.00;-1.00;132559;1275;1002745;-73
2023/04/10 05:30:08;;;;;;;52.20;26.40;;;;;;;-128.00;-1.00;-1.00;132667;1275;1002558;-73
2023/04/10 05:33:09;;;;;;;53.40;26.40;;;;;;;-128.00;-1.00;-1.00;132669;1275;1002536;-73
2023/04/10 05:36:10;;;;;;;57.20;26.50;;;;;;;-128.00;-1.00;-1.00;132599;1275;1002916;-73
2023/04/10 05:39:12;;;;;;;53.20;25.00;;;;;;;-128.00;-1.00;-1.00;132633;1275;1003140;-72
2023/04/10 05:42:13;;;;;;;54.20;25.80;;;;;;;-128.00;-1.00;-1.00;132631;1275;1002422;-72
2023/04/10 05:45:14;;;;;;;55.40;25.50;;;;;;;-128.00;-1.00;-1.00;132556;1275;1002795;-73
2023/04/10 05:48:15;;;;;;;48.30;25.40;;;;;;;-128.00;-1.00;-1.00;132571;1275;1002560;-72
2023/04/10 05:51:16;;;;;;;60.10;25.30;;;;;;;-128.00;-1.00;-1.00;132622;1275;1002899;-68
2023/04/10 05:54:17;;;;;;;51.70;24.90;;;;;;;-128.00;-1.00;-1.00;132647;1275;1003343;-72
2023/04/10 05:57:18;;;;;;;49.30;24.80;;;;;;;-128.00;-1.00;-1.00;132681;1275;1003508;-72
2023/04/10 06:00:19;;;;;;;49.40;25.90;;;;;;;-128.00;-1.00;-1.00;132593;1275;1002280;-73
2023/04/10 06:03:20;;;;;;;50.50;25.90;;;;;;;-128.00;-1.00;-1.00;132610;1275;1002965;-72
2023/04/10 06:06:21;;;;;;;49.70;26.30;;;;;;;-128.00;-1.00;-1.00;132595;1275;1002927;-72
2023/04/10 06:09:22;;;;;;;53.00;26.20;;;;;;;-128.00;-1.00;-1.00;132536;1275;1003046;-71
2023/04/10 06:12:23;;;;;;;53.40;27.10;;;;;;;-128.00;-1.00;-1.00;132621;1275;1003488;-72
2023/04/10 06:15:24;;;;;;;54.60;27.00;;;;;;;-128.00;-1.00;-1.00;132607;1275;1002496;-72
2023/04/10 06:18:25;;;;;;;48.70;25.70;;;;;;;-128.00;-1.00;-1.00;132597;1275;1002769;-71
2023/04/10 06:21:26;;;;;;;49.10;26.40;;;;;;;-128.00;-1.00;-1.00;132629;1275;1003176;-71
2023/04/10 06:24:27;;;;;;;53.40;27.90;;;;;;;-128.00;-1.00;-1.00;132684;1275;1002530;-71
2023/04/10 06:27:28;;;;;;;52.70;26.10;;;;;;;-128.00;-1.00;-1.00;132620;1275;1004389;-72
2023/04/10 06:30:30;;;;;;;50.20;26.40;;;;;;;-128.00;-1.00;-1.00;132632;1275;1002766;-72
2023/04/10 06:33:31;;;;;;;51.00;27.50;;;;;;;-128.00;-1.00;-1.00;132599;1275;1003114;-72
2023/04/10 06:36:32;;;;;;;54.50;27.60;;;;;;;-128.00;-1.00;-1.00;132646;1275;1002180;-72
2023/04/10 06:39:33;;;;;;;56.20;28.10;;;;;;;-128.00;-1.00;-1.00;132612;1275;1002719;-73
2023/04/10 06:42:34;;;;;;;50.70;27.10;;;;;;;-128.00;-1.00;-1.00;132538;1275;1003669;-72
2023/04/10 06:45:35;;;;;;;50.50;26.90;;;;;;;-128.00;-1.00;-1.00;132579;1275;1003084;-71
2023/04/10 06:48:36;;;;;;;48.90;27.10;;;;;;;-128.00;-1.00;-1.00;132579;1275;1002176;-70
2023/04/10 06:51:37;;;;;;;49.50;26.70;;;;;;;-128.00;-1.00;-1.00;132484;1275;1002797;-73
2023/04/10 06:54:38;;;;;;;49.20;26.70;;;;;;;-128.00;-1.00;-1.00;132594;1275;1002340;-72
2023/04/10 06:57:39;;;;;;;53.40;26.90;;;;;;;-128.00;-1.00;-1.00;132619;1275;1002635;-69
2023/04/10 07:00:40;;;;;;;55.70;27.60;;;;;;;-128.00;-1.00;-1.00;132581;1275;1003277;-74
2023/04/10 07:03:41;;;;;;;48.90;26.20;;;;;;;-128.00;-1.00;-1.00;132626;1275;1002505;-74
2023/04/10 07:06:42;;;;;;;47.70;26.50;;;;;;;-128.00;-1.00;-1.00;132519;1275;1002673;-72
2023/04/10 07:09:43;;;;;;;49.50;26.40;;;;;;;-128.00;-1.00;-1.00;132586;1275;1002904;-73
2023/04/10 07:12:44;;;;;;;51.20;25.60;;;;;;;-128.00;-1.00;-1.00;132633;1275;1002697;-74
2023/04/10 07:15:45;;;;;;;47.90;26.20;;;;;;;-128.00;-1.00;-1.00;132636;1275;1002776;-71
2023/04/10 07:18:46;;;;;;;48.20;26.00;;;;;;;-128.00;-1.00;-1.00;132580;1275;1003265;-74
2023/04/10 07:21:49;;;;;;;49.50;26.70;;;;;;;-128.00;-1.00;-1.00;132596;1275;1002757;-74
2023/04/10 07:24:50;;;;;;;49.40;27.70;;;;;;;-128.00;-1.00;-1.00;132615;1275;1002708;-74
2023/04/10 07:27:51;;;;;;;50.70;26.70;;;;;;;-128.00;-1.00;-1.00;132576;1275;1003002;-73
2023/04/10 07:30:52;;;;;;;50.30;26.50;;;;;;;-128.00;-1.00;-1.00;132592;1275;1002686;-72
2023/04/10 07:33:53;;;;;;;45.60;24.00;;;;;;;-128.00;-1.00;-1.00;132662;1275;1002727;-73
2023/04/10 07:36:54;;;;;;;45.80;24.00;;;;;;;-128.00;-1.00;-1.00;132602;1275;1003456;-73
2023/04/10 07:39:55;;;;;;;44.60;22.80;;;;;;;-128.00;-1.00;-1.00;132589;1275;1002390;-73
2023/04/10 07:42:56;;;;;;;45.10;24.40;;;;;;;-128.00;-1.00;-1.00;132632;1275;1002411;-73
2023/04/10 07:45:57;;;;;;;48.00;26.30;;;;;;;-128.00;-1.00;-1.00;132494;1275;1002930;-71
2023/04/10 07:48:57;;;;;;;44.60;24.50;;;;;;;-128.00;-1.00;-1.00;132555;1275;1003045;-72
2023/04/10 07:51:59;;;;;;;48.20;25.50;;;;;;;-128.00;-1.00;-1.00;132612;1275;1002866;-70
2023/04/10 07:55:00;;;;;;;48.20;24.70;;;;;;;-128.00;-1.00;-1.00;132597;1275;1002684;-72
2023/04/10 07:58:01;;;;;;;47.30;24.10;;;;;;;-128.00;-1.00;-1.00;132643;1275;1002635;-74
2023/04/10 08:01:04;;;;;;;47.70;25.90;;;;;;;-128.00;-1.00;-1.00;132618;1275;1004325;-74
2023/04/10 08:04:05;;;;;;;48.50;26.20;;;;;;;-128.00;-1.00;-1.00;132625;1275;1002765;-72
2023/04/10 08:07:06;;;;;;;46.50;25.90;;;;;;;-128.00;-1.00;-1.00;132543;1275;1002506;-72
2023/04/10 08:10:07;;;;;;;45.50;25.00;;;;;;;-128.00;-1.00;-1.00;132602;1275;1003949;-73
2023/04/10 08:13:08;;;;;;;44.30;23.20;;;;;;;-128.00;-1.00;-1.00;132629;1275;1002785;-73
2023/04/10 08:16:09;;;;;;;45.30;23.90;;;;;;;-128.00;-1.00;-1.00;132547;1275;1002833;-73
2023/04/10 08:19:10;;;;;;;45.70;25.50;;;;;;;-128.00;-1.00;-1.00;132611;1275;1002280;-74
2023/04/10 08:22:11;;;;;;;47.80;25.40;;;;;;;-128.00;-1.00;-1.00;132633;1271;1002763;-71
2023/04/10 08:25:12;;;;;;;47.10;25.30;;;;;;;-128.00;-1.00;-1.00;132604;1275;1002575;-71
2023/04/10 08:28:14;;;;;;;42.60;23.70;;;;;;;-128.00;-1.00;-1.00;132577;1275;1002923;-70
2023/04/10 08:31:15;;;;;;;44.50;22.90;;;;;;;-128.00;-1.00;-1.00;132527;1275;1002550;-71
2023/04/10 08:34:16;;;;;;;43.10;24.40;;;;;;;-128.00;-1.00;-1.00;132566;1275;1002711;-71
2023/04/10 08:37:18;;;;;;;43.80;24.00;;;;;;;-128.00;-1.00;-1.00;132565;1275;1002700;-70
2023/04/10 08:40:19;;;;;;;;;;;;;;;-128.00;-1.00;-1.00;132589;1275;1002629;-74
2023/04/10 08:43:20;;;;;;;47.70;25.40;;;;;;;-128.00;-1.00;-1.00;132560;1275;1002567;-74
2023/04/10 08:46:21;;;;;;;41.90;23.10;;;;;;;-128.00;-1.00;-1.00;132551;1275;1002361;-72
2023/04/10 08:49:22;;;;;;;44.20;23.70;;;;;;;-128.00;-1.00;-1.00;132587;1275;1004055;-74
2023/04/10 08:52:23;;;;;;;42.70;22.60;;;;;;;-128.00;-1.00;-1.00;132605;1275;1002668;-75
2023/04/10 08:55:24;;;;;;;43.00;22.80;;;;;;;-128.00;-1.00;-1.00;132611;1275;1002675;-74
2023/04/10 08:58:25;;;;;;;38.50;20.50;;;;;;;-128.00;-1.00;-1.00;132634;1275;1002540;-72
2023/04/10 09:01:26;;;;;;;39.10;21.20;;;;;;;-128.00;-1.00;-1.00;132587;1275;1002447;-73
2023/04/10 09:04:27;;;;;;;40.70;21.60;;;;;;;-128.00;-1.00;-1.00;132573;1275;1002609;-73
2023/04/10 09:07:28;;;;;;;41.90;20.70;;;;;;;-128.00;-1.00;-1.00;132522;1275;1002724;-74
2023/04/10 09:10:29;;;;;;;39.00;20.00;;;;;;;-128.00;-1.00;-1.00;132638;1275;1002980;-74
2023/04/10 09:13:30;;;;;;;35.90;18.80;;;;;;;-128.00;-1.00;-1.00;132592;1275;1002478;-74
2023/04/10 09:16:31;;;;;;;34.30;17.30;;;;;;;-128.00;-1.00;-1.00;132652;1275;1002488;-74
2023/04/10 09:19:32;;;;;;;32.30;16.20;;;;;;;-128.00;-1.00;-1.00;132635;1275;1002434;-73
2023/04/10 09:22:33;;;;;;;31.00;15.10;;;;;;;-128.00;-1.00;-1.00;132623;1275;1002736;-74
2023/04/10 09:25:34;;;;;;;32.10;15.70;;;;;;;-128.00;-1.00;-1.00;132513;1275;1002310;-75
2023/04/10 09:28:35;;;;;;;29.60;14.80;;;;;;;-128.00;-1.00;-1.00;132613;1275;1005438;-73
2023/04/10 09:31:36;;;;;;;32.90;17.40;;;;;;;-128.00;-1.00;-1.00;132595;1275;1002462;-74
2023/04/10 09:34:37;;;;;;;32.50;15.90;;;;;;;-128.00;-1.00;-1.00;132586;1275;1003384;-73
2023/04/10 09:37:39;;;;;;;34.60;16.80;;;;;;;-128.00;-1.00;-1.00;132622;1275;1002670;-72
2023/04/10 09:40:40;;;;;;;30.90;15.50;;;;;;;-128.00;-1.00;-1.00;132639;1275;1003030;-75
2023/04/10 09:43:42;;;;;;;32.80;15.90;;;;;;;-128.00;-1.00;-1.00;132520;1275;1002942;-75
2023/04/10 09:46:43;;;;;;;33.30;16.40;;;;;;;-128.00;-1.00;-1.00;132527;1275;1002910;-75
2023/04/10 09:49:44;;;;;;;31.40;15.80;;;;;;;-128.00;-1.00;-1.00;132609;1275;1002399;-75
2023/04/10 09:52:45;;;;;;;30.80;13.70;;;;;;;-11.42;53.38;79726.34;75058;1275;1003815;-74
2023/04/10 09:55:46;;;;;;;29.50;13.40;;;;;;;18.32;68.02;99646.16;67982;1275;1016315;-75
2023/04/10 09:58:47;;;;;;;26.40;12.80;;;;;;;19.01;64.95;99644.89;67976;1275;1016305;-75
2023/04/10 10:01:48;;;;;;;24.30;11.00;;;;;;;19.30;63.36;99639.11;68031;1275;1016249;-75
2023/04/10 10:04:49;;;;;;;27.40;12.10;;;;;;;19.37;61.38;99635.33;67952;1275;1016531;-73
2023/04/10 10:07:50;;;;;;;26.20;11.80;;;;;;;19.62;61.68;99635.09;68035;1275;1016229;-75
2023/04/10 10:10:51;;;;;;;25.10;11.30;;;;;;;20.02;61.78;99634.55;67961;1275;1016301;-71
2023/04/10 10:13:53;;;;;;;22.80;9.40;;;;;;;20.01;59.32;99632.30;67991;1275;1018195;-72
2023/04/10 10:16:55;;;;;;;23.90;9.50;;;;;;;19.84;59.21;99624.94;67978;1275;1016505;-71
2023/04/10 10:19:56;;;;;;;23.30;9.30;;;;;;;20.29;59.74;99618.45;67997;1275;1018125;-72
2023/04/10 10:22:57;;;;;;;21.20;8.70;;;;;;;21.00;58.85;99614.45;67974;1275;1016315;-72
2023/04/10 10:25:58;;;;;;;22.90;9.00;;;;;;;21.36;56.21;99609.31;67981;1275;1016945;-71
2023/04/10 10:28:59;;;;;;;22.00;7.60;;;;;;;21.49;55.24;99607.92;67961;1275;1016248;-72
2023/04/10 10:32:01;;;;;;;23.10;9.30;;;;;;;21.47;54.06;99611.86;68009;1275;1016427;-73
2023/04/10 10:35:02;;;;;;;21.10;7.00;;;;;;;21.50;52.62;99599.88;68013;1275;1016427;-72
2023/04/10 10:38:04;;;;;;;20.80;8.10;;;;;;;21.32;51.69;99600.98;67933;1275;1016433;-72
2023/04/10 10:41:05;;;;;;;20.90;7.20;;;;;;;21.42;51.30;99600.30;67988;1275;1016316;-71
2023/04/10 10:44:06;;;;;;;19.40;6.50;;;;;;;21.03;49.57;99597.83;67976;1275;1016359;-72
2023/04/10 10:47:07;;;;;;;19.80;6.80;;;;;;;20.74;49.99;99592.59;67968;1274;1016811;-70
2023/04/10 10:50:08;;;;;;;18.50;6.40;;;;;;;20.79;50.83;99585.84;68008;1275;1017949;-73
2023/04/10 10:53:09;;;;;;;19.20;7.10;;;;;;;21.03;51.33;99580.73;67957;1275;1016409;-73
2023/04/10 10:56:11;;;;;;;19.80;6.00;;;;;;;21.56;51.38;99579.78;67980;1275;1016183;-71
2023/04/10 10:59:12;;;;;;;20.30;6.80;;;;;;;21.94;51.66;99573.67;68003;1275;1016279;-74
2023/04/10 11:02:14;;;;;;;18.80;6.70;;;;;;;22.15;50.15;99578.84;67966;1275;1016463;-73
2023/04/10 11:05:15;;;;;;;;;;;;;;;22.04;48.88;99577.14;67933;1275;1016141;-69
2023/04/10 11:08:16;;;;;;;19.20;6.70;;;;;;;22.00;47.48;99572.17;68009;1275;1016381;-72
2023/04/10 11:11:17;;;;;;;20.40;6.40;;;;;;;21.91;49.20;99572.15;67969;1275;1016706;-72
2023/04/10 11:14:18;;;;;;;16.60;5.40;;;;;;;22.02;48.77;99563.40;67980;1275;1016802;-74
2023/04/10 11:17:19;;;;;;;19.40;6.10;;;;;;;22.41;48.46;99555.04;67953;1275;1016487;-73
2023/04/10 11:20:20;;;;;;;17.70;5.70;;;;;;;22.92;48.61;99552.75;68012;1275;1016178;-74
2023/04/10 11:23:21;;;;;;;18.10;5.40;;;;;;;23.31;47.35;99544.91;67972;1275;1016528;-67
2023/04/10 11:26:23;;;;;;;20.60;5.30;;;;;;;22.81;45.99;99541.26;67998;1275;1015742;-70
2023/04/10 11:29:25;;;;;;;;;;;;;;;22.80;45.87;99535.98;67990;1275;1016374;-73
2023/04/10 11:32:26;;;;;;;16.80;5.10;;;;;;;22.40;45.92;99531.08;67956;1275;1016471;-72
2023/04/10 11:35:27;;;;;;;19.40;4.90;;;;;;;21.91;45.54;99532.92;67971;1275;1016416;-73
2023/04/10 11:38:28;;;;;;;15.20;4.60;;;;;;;21.55;45.45;99527.85;68015;1275;1016445;-74
2023/04/10 11:41:30;;;;;;;14.80;4.40;;;;;;;21.64;45.33;99525.77;67943;1275;1016062;-70
2023/04/10 11:44:31;;;;;;;16.00;4.70;;;;;;;21.65;45.42;99520.50;67945;1275;1016374;-69
2023/04/10 11:47:32;;;;;;;15.20;4.60;;;;;;;21.67;46.01;99513.55;68000;1275;1016432;-65
2023/04/10 11:50:35;;;;;;;17.00;4.80;;;;;;;21.57;47.11;99505.31;67964;1275;1016796;-71
2023/04/10 11:53:36;;;;;;;18.30;4.90;;;;;;;21.87;46.06;99502.80;67999;1275;1016521;-69
2023/04/10 11:56:37;;;;;;;14.70;4.10;;;;;;;21.91;46.14;99502.31;67974;1275;1017341;-67
2023/04/10 11:59:38;;;;;;;17.10;4.40;;;;;;;22.19;44.19;99497.45;67967;1275;1016403;-74
2023/04/10 12:02:39;;;;;;;17.70;5.10;;;;;;;22.63;43.57;99498.27;67925;1275;1017066;-67
2023/04/10 12:05:43;;;;;;;13.30;3.90;;;;;;;22.84;42.71;99494.45;67964;1275;1016714;-67
2023/04/10 12:08:44;;;;;;;16.10;4.10;;;;;;;23.14;41.63;99489.41;67946;1275;1016384;-69
2023/04/10 12:11:46;;;;;;;17.30;4.30;;;;;;;23.50;42.18;99482.00;67940;1275;1016449;-70
2023/04/10 12:14:49;;;;;;;13.20;3.90;;;;;;;24.18;42.35;99469.08;67913;1275;1016267;-67
2023/04/10 12:17:50;;;;;;;15.70;4.40;;;;;;;24.68;41.67;99460.11;67964;1275;1016359;-66
2023/04/10 12:20:55;;;;;;;15.90;4.20;;;;;;;24.98;40.07;99457.00;67931;1275;1016185;-73
2023/04/10 12:23:56;;;;;;;14.00;3.90;;;;;;;24.68;40.23;99459.23;67964;1275;1016197;-73
2023/04/10 12:26:57;;;;;;;13.70;4.20;;;;;;;24.25;40.71;99452.23;67995;1275;1016320;-75
2023/04/10 12:29:58;;;;;;;15.40;4.30;;;;;;;24.22;40.62;99446.14;67995;1275;1016653;-75
2023/04/10 12:33:04;;;;;;;14.90;4.00;;;;;;;24.13;39.00;99445.34;67970;1275;1016456;-75
2023/04/10 12:36:06;;;;;;;18.70;5.40;;;;;;;23.18;40.10;99447.61;67985;1275;1015918;-75
2023/04/10 12:39:08;;;;;;;15.00;4.50;;;;;;;22.54;40.08;99439.13;67908;1275;1016445;-75
2023/04/10 12:42:09;;;;;;;15.90;4.50;;;;;;;21.99;40.89;99433.41;67966;1275;1016320;-76
2023/04/10 12:45:12;;;;;;;16.30;4.60;;;;;;;21.74;41.47;99425.88;67957;1275;1015826;-74
2023/04/10 12:48:15;;;;;;;14.30;4.40;;;;;;;21.82;42.18;99423.48;67951;1275;1016219;-75
2023/04/10 12:51:16;;;;;;;16.60;4.30;;;;;;;22.02;41.32;99417.56;67988;1275;1016127;-73
2023/04/10 12:54:17;;;;;;;12.70;4.30;;;;;;;22.11;40.47;99413.46;67951;1275;1019104;-75
2023/04/10 12:57:18;;;;;;;16.70;4.80;;;;;;;22.06;41.14;99411.69;67988;1275;1019539;-74
2023/04/10 13:00:20;;;;;;;16.50;4.40;;;;;;;21.68;40.63;99405.29;67956;1275;1015824;-75
2023/04/10 13:03:20;;;;;;;16.60;4.60;;;;;;;21.45;40.97;99406.62;67965;1275;1016468;-76
2023/04/10 13:06:21;;;;;;;17.50;4.30;;;;;;;21.38;41.72;99406.39;67956;1275;1016236;-76
2023/04/10 13:09:22;;;;;;;13.90;4.50;;;;;;;21.40;41.42;99407.98;67977;1275;1016452;-74
2023/04/10 13:12:25;;;;;;;16.40;4.90;;;;;;;21.32;41.60;99401.79;67976;1275;1015791;-74
2023/04/10 13:15:26;;;;;;;15.40;5.00;;;;;;;21.49;42.13;99399.09;67997;1275;1016464;-74
2023/04/10 13:18:27;;;;;;;17.70;4.50;;;;;;;21.88;41.85;99390.80;67927;1275;1016269;-76
2023/04/10 13:21:28;;;;;;;15.10;4.50;;;;;;;22.62;42.15;99383.83;68024;1275;1016319;-68
2023/04/10 13:24:29;;;;;;;19.70;4.90;;;;;;;23.98;41.62;99379.41;67949;1272;1016483;-71
2023/04/10 13:27:30;;;;;;;13.40;4.00;;;;;;;24.75;39.34;99374.05;68024;1275;1016354;-69
2023/04/10 13:30:31;;;;;;;11.60;3.50;;;;;;;24.25;38.32;99379.64;67994;1276;1016375;-71
2023/04/10 13:33:33;;;;;;;11.80;3.50;;;;;;;23.37;37.73;99381.55;68027;1276;1016429;-72
2023/04/10 13:36:34;;;;;;;12.10;3.30;;;;;;;22.77;37.82;99383.84;68005;1276;1016441;-72